Time;durP1;ratioP1;P1;durP2;ratioP2;P2;SDS_P1;SDS_P2;PMS_P1;PMS_P2;Temp;Humidity;BMP_temperature;BMP_pressure;BME280_temperature;BME280_humidity;BME280_pressure;Samples;Min_cycle;Max_cycle;Signal;HPM_P1;HPM_P2
2024/02/19 00:01:00;;;;;;;24.02;5.38;;;;;;;8.23;100.00;102548.56;5084674;28;20112;-75
2024/02/19 00:03:27;;;;;;;25.05;6.10;;;;;;;8.19;100.00;102549.28;5086614;28;20107;-72
2024/02/19 00:05:52;;;;;;;24.73;5.57;;;;;;;8.23;100.00;102545.94;5083466;28;20027;-73
2024/02/19 00:08:18;;;;;;;25.20;5.65;;;;;;;8.20;100.00;102548.44;5068653;28;20473;-71
2024/02/19 00:10:43;;;;;;;25.13;5.85;;;;;;;8.24;100.00;102557.38;5084053;28;20028;-73
2024/02/19 00:13:08;;;;;;;25.67;6.00;;;;;;;8.25;100.00;102546.88;5085471;28;20479;-79
2024/02/19 00:15:34;;;;;;;24.17;5.53;;;;;;;8.23;100.00;102542.38;5085046;28;20166;-80
2024/02/19 00:17:59;;;;;;;23.55;5.78;;;;;;;8.17;100.00;102562.38;5084363;28;20479;-79
2024/02/19 00:20:25;;;;;;;22.48;5.03;;;;;;;8.17;100.00;102550.97;5086123;28;20110;-77
2024/02/19 00:22:51;;;;;;;23.50;5.32;;;;;;;8.22;100.00;102559.94;5065050;28;20107;-75
2024/02/19 00:25:16;;;;;;;23.48;4.35;;;;;;;8.29;100.00;102561.09;5086728;28;20035;-72
2024/02/19 00:27:42;;;;;;;24.00;4.65;;;;;;;8.29;100.00;102561.09;5083740;28;20040;-81
2024/02/19 00:30:08;;;;;;;22.67;4.30;;;;;;;8.22;100.00;102561.69;5085043;28;20031;-76
2024/02/19 00:32:34;;;;;;;22.52;4.38;;;;;;;8.17;100.00;102564.13;5066701;28;20080;-78
2024/02/19 00:34:59;;;;;;;23.05;4.50;;;;;;;8.20;100.00;102569.53;5083831;28;20444;-78
2024/02/19 00:37:25;;;;;;;25.58;4.93;;;;;;;8.29;100.00;102563.75;5086042;28;20031;-81
2024/02/19 00:39:50;;;;;;;23.50;4.63;;;;;;;8.25;100.00;102565.34;5064988;28;20037;-76
2024/02/19 00:42:16;;;;;;;24.10;4.70;;;;;;;8.21;100.00;102571.31;5067880;28;20036;-74
2024/02/19 00:44:41;;;;;;;23.88;4.43;;;;;;;8.17;100.00;102567.66;5083549;28;20024;-70
2024/02/19 00:47:07;;;;;;;23.02;4.60;;;;;;;8.12;100.00;102570.94;5083799;28;20455;-74
2024/02/19 00:49:32;;;;;;;24.42;4.45;;;;;;;8.24;100.00;102565.28;5084605;28;20024;-71
2024/02/19 00:51:58;;;;;;;22.95;4.85;;;;;;;8.21;100.00;102571.31;5083228;28;20048;-81
2024/02/19 00:54:23;;;;;;;24.63;4.65;;;;;;;8.20;100.00;102572.16;5085726;28;20505;-74
2024/02/19 00:56:48;;;;;;;21.40;4.28;;;;;;;8.18;100.00;102574.75;5064443;28;20115;-76
2024/02/19 00:59:14;;;;;;;26.23;4.40;;;;;;;8.19;100.00;102573.00;5085637;28;20032;-72
2024/02/19 01:01:39;;;;;;;24.02;4.60;;;;;;;8.13;100.00;102580.66;5083201;28;20548;-71
2024/02/19 01:04:05;;;;;;;22.92;4.63;;;;;;;8.11;100.00;102582.28;5083797;28;20375;-71
2024/02/19 01:06:31;;;;;;;23.25;5.03;;;;;;;8.10;100.00;102578.78;5066749;28;20066;-75
2024/02/19 01:08:57;;;;;;;24.13;5.18;;;;;;;8.11;100.00;102584.94;5082501;28;20387;-77
2024/02/19 01:11:22;;;;;;;25.35;4.93;;;;;;;8.09;100.00;102578.72;5085311;28;20028;-76
2024/02/19 01:13:48;;;;;;;24.45;5.25;;;;;;;8.05;100.00;102584.69;5082355;28;20025;-79
2024/02/19 01:16:13;;;;;;;25.50;4.70;;;;;;;8.03;100.00;102585.50;5085071;28;20404;-74
2024/02/19 01:18:38;;;;;;;22.88;4.65;;;;;;;8.06;100.00;102575.94;5083453;28;20046;-74
2024/02/19 01:21:04;;;;;;;25.95;4.70;;;;;;;8.00;100.00;102573.94;5083334;28;20086;-72
2024/02/19 01:23:29;;;;;;;23.67;4.75;;;;;;;8.00;100.00;102580.09;5084348;28;20078;-70
2024/02/19 01:25:55;;;;;;;23.98;4.50;;;;;;;8.03;100.00;102579.34;5082021;28;20024;-81
2024/02/19 01:28:23;;;;;;;27.20;5.07;;;;;;;8.06;100.00;102586.50;5085419;28;20028;-79
2024/02/19 01:30:49;;;;;;;23.52;4.32;;;;;;;8.04;100.00;102591.69;5081797;28;20384;-81
2024/02/19 01:33:15;;;;;;;25.48;4.90;;;;;;;8.05;100.00;102595.22;5084822;28;20051;-79
2024/02/19 01:35:40;;;;;;;24.25;4.75;;;;;;;8.05;100.00;102597.84;5082500;28;20027;-71
2024/02/19 01:38:05;;;;;;;25.30;5.05;;;;;;;7.99;100.00;102599.41;5065437;28;20433;-80
2024/02/19 01:40:31;;;;;;;26.50;5.30;;;;;;;7.95;100.00;102600.09;5065960;28;20044;-70
2024/02/19 01:43:04;;;;;;;27.73;5.55;;;;;;;7.96;100.00;102601.00;5063956;28;20087;-71
2024/02/19 01:45:30;;;;;;;26.23;5.93;;;;;;;7.90;100.00;102609.53;5084019;28;20543;-70
2024/02/19 01:47:56;;;;;;;28.35;6.00;;;;;;;7.87;100.00;102600.59;5081840;28;20040;-70
2024/02/19 01:50:23;;;;;;;28.63;5.88;;;;;;;7.85;100.00;102606.69;5084992;28;20016;-71
2024/02/19 01:52:51;;;;;;;27.42;6.20;;;;;;;7.81;100.00;102610.03;5081242;28;20056;-70
2024/02/19 01:55:17;;;;;;;29.92;6.20;;;;;;;7.80;100.00;102613.47;5084637;28;20035;-70
2024/02/19 01:57:44;;;;;;;28.30;5.95;;;;;;;7.79;100.00;102610.78;5084538;28;20028;-70
2024/02/19 02:00:11;;;;;;;26.85;6.47;;;;;;;7.78;100.00;102607.25;5082524;28;20110;-78
2024/02/19 02:02:37;;;;;;;26.08;5.93;;;;;;;7.84;100.00;102606.63;5083334;28;20386;-81
2024/02/19 02:05:03;;;;;;;24.95;5.82;;;;;;;7.83;100.00;102608.38;5083356;28;20114;-81
2024/02/19 02:07:29;;;;;;;26.67;5.97;;;;;;;7.74;100.00;102597.41;5064119;28;20116;-80
2024/02/19 02:09:57;;;;;;;27.25;6.45;;;;;;;7.78;100.00;102609.00;5084546;28;20458;-81
2024/02/19 02:12:23;;;;;;;29.42;6.35;;;;;;;7.72;100.00;102608.69;5081791;28;20114;-80
2024/02/19 02:14:48;;;;;;;27.42;6.15;;;;;;;7.83;100.00;102615.34;5081558;28;20056;-77
2024/02/19 02:17:14;;;;;;;25.52;5.88;;;;;;;7.74;100.00;102612.31;5084594;28;20048;-74
2024/02/19 02:19:41;;;;;;;28.08;6.22;;;;;;;7.68;100.00;102613.84;5082769;28;20099;-79
2024/02/19 02:22:07;;;;;;;27.35;5.70;;;;;;;7.68;100.00;102616.47;5083288;28;20043;-82
2024/02/19 02:24:32;;;;;;;26.30;6.22;;;;;;;7.68;100.00;102613.84;5083925;28;20024;-82
2024/02/19 02:26:58;;;;;;;28.80;6.30;;;;;;;7.64;100.00;102616.28;5081608;28;20020;-77
2024/02/19 02:29:24;;;;;;;27.63;5.82;;;;;;;7.68;100.00;102605.94;5066570;28;20131;-71
2024/02/19 02:31:49;;;;;;;28.92;6.40;;;;;;;7.63;100.00;102620.66;5081340;28;20100;-78
2024/02/19 02:34:14;;;;;;;26.60;5.85;;;;;;;7.58;100.00;102613.38;5066573;28;20030;-72
2024/02/19 02:36:40;;;;;;;27.67;6.00;;;;;;;7.63;100.00;102617.09;5081883;28;20040;-74
2024/02/19 02:39:06;;;;;;;27.20;5.93;;;;;;;7.59;100.00;102613.44;5082741;28;20482;-77
2024/02/19 02:41:31;;;;;;;27.73;6.00;;;;;;;7.58;100.00;102611.63;5082927;28;20032;-75
2024/02/19 02:43:57;;;;;;;25.73;5.70;;;;;;;7.55;100.00;102611.50;5081329;28;20031;-77
2024/02/19 02:46:22;;;;;;;29.48;6.28;;;;;;;7.53;100.00;102602.66;5084744;28;20467;-79
2024/02/19 02:48:48;;;;;;;29.20;6.28;;;;;;;7.54;100.00;102604.41;5080913;28;20016;-81
2024/02/19 02:51:13;;;;;;;27.83;5.88;;;;;;;7.54;100.00;102604.41;5083567;28;20445;-81
2024/02/19 02:53:38;;;;;;;28.10;6.20;;;;;;;7.51;100.00;102604.28;5082352;28;20069;-80
2024/02/19 02:56:04;;;;;;;27.13;5.95;;;;;;;7.52;100.00;102608.72;5082057;28;20211;-80
2024/02/19 02:58:29;;;;;;;28.27;5.80;;;;;;;7.51;100.00;102599.03;5083727;28;20032;-81
2024/02/19 03:00:55;;;;;;;26.40;5.63;;;;;;;7.50;100.00;102594.63;5080741;28;20028;-74
2024/02/19 03:03:20;;;;;;;26.77;5.53;;;;;;;7.47;100.00;102597.09;5084261;28;20039;-75
2024/02/19 03:05:46;;;;;;;27.02;5.70;;;;;;;7.44;100.00;102587.34;5063293;28;20044;-70
2024/02/19 03:08:11;;;;;;;26.35;5.38;;;;;;;7.46;100.00;102596.19;5065124;28;20107;-70
2024/02/19 03:10:36;;;;;;;25.98;5.18;;;;;;;7.45;100.00;102585.59;5085493;28;20029;-70
2024/02/19 03:13:02;;;;;;;25.08;5.38;;;;;;;7.46;100.00;102587.41;5086981;28;20039;-70
2024/02/19 03:15:28;;;;;;;26.30;5.65;;;;;;;7.46;100.00;102587.41;5066947;28;20427;-71
2024/02/19 03:17:53;;;;;;;28.15;5.50;;;;;;;7.45;100.00;102596.13;5088136;28;20497;-80
2024/02/19 03:20:23;;;;;;;27.17;5.60;;;;;;;7.44;100.00;102589.97;5084446;28;20035;-75
2024/02/19 03:22:49;;;;;;;26.42;5.13;;;;;;;7.43;100.00;102596.06;5084290;28;20032;-77
2024/02/19 03:25:14;;;;;;;26.48;5.82;;;;;;;7.45;100.00;102598.75;5087076;28;20036;-70
2024/02/19 03:27:40;;;;;;;26.58;5.25;;;;;;;7.46;100.00;102597.94;5085558;28;20542;-70
2024/02/19 03:30:06;;;;;;;24.55;5.00;;;;;;;7.47;100.00;102597.09;5085654;28;20110;-70
2024/02/19 03:32:32;;;;;;;26.83;5.70;;;;;;;7.48;100.00;102589.28;5086423;28;20107;-70
2024/02/19 03:34:57;;;;;;;26.20;5.35;;;;;;;7.45;100.00;102589.13;5084643;28;20154;-69
2024/02/19 03:37:23;;;;;;;26.33;4.68;;;;;;;7.48;100.00;102589.28;5087590;28;20032;-70
2024/02/19 03:39:49;;;;;;;25.05;4.93;;;;;;;7.52;100.00;102582.41;5066381;28;20032;-69
2024/02/19 03:42:14;;;;;;;24.48;4.93;;;;;;;7.53;100.00;102581.59;5083697;28;20054;-71
2024/02/19 03:44:40;;;;;;;25.38;4.70;;;;;;;7.54;100.00;102595.63;5085883;28;20037;-72
2024/02/19 03:47:06;;;;;;;25.02;4.72;;;;;;;7.55;100.00;102594.81;5085870;28;20025;-70
2024/02/19 03:49:31;;;;;;;24.50;4.95;;;;;;;7.54;100.00;102600.91;5084644;28;20078;-70
2024/02/19 03:51:56;;;;;;;25.52;4.57;;;;;;;7.55;100.00;102589.56;5065244;28;20056;-74
2024/02/19 03:54:22;;;;;;;24.42;4.70;;;;;;;7.56;100.00;102599.22;5063815;28;20029;-73
2024/02/19 03:56:48;;;;;;;25.98;4.85;;;;;;;7.55;100.00;102594.81;5065570;28;20388;-70
2024/02/19 03:59:14;;;;;;;25.00;4.80;;;;;;;7.57;100.00;102594.06;5064145;28;20024;-75
2024/02/19 04:01:39;;;;;;;22.88;4.72;;;;;;;7.59;100.00;102587.13;5065751;28;20076;-72
2024/02/19 04:04:05;;;;;;;23.45;4.72;;;;;;;7.59;100.00;102583.59;5064138;28;20032;-79
2024/02/19 04:06:30;;;;;;;24.13;4.55;;;;;;;7.61;100.00;102581.91;5064086;28;20037;-72
2024/02/19 04:08:55;;;;;;;23.10;4.25;;;;;;;7.64;100.00;102590.84;5066644;28;20454;-70
2024/02/19 04:11:21;;;;;;;25.30;4.70;;;;;;;7.62;100.00;102589.88;5063437;28;20033;-81
2024/02/19 04:13:46;;;;;;;25.40;4.57;;;;;;;7.62;100.00;102587.25;5066515;28;20028;-72
2024/02/19 04:16:11;;;;;;;24.67;5.07;;;;;;;7.63;100.00;102589.06;5064642;28;20055;-80
2024/02/19 04:18:37;;;;;;;23.45;4.82;;;;;;;7.61;100.00;102584.56;5065163;28;20033;-81
2024/02/19 04:21:02;;;;;;;23.17;4.80;;;;;;;7.61;100.00;102582.81;5065053;28;20025;-81
2024/02/19 04:23:28;;;;;;;25.58;5.22;;;;;;;7.61;100.00;102579.28;5063506;28;20047;-81
2024/02/19 04:25:53;;;;;;;23.70;4.95;;;;;;;7.62;100.00;102587.25;5066501;28;20380;-79
2024/02/19 04:28:18;;;;;;;24.70;5.28;;;;;;;7.61;100.00;102585.44;5063237;28;20377;-81
2024/02/19 04:30:44;;;;;;;23.73;4.72;;;;;;;7.62;100.00;102602.16;5065443;28;20506;-81
2024/02/19 04:33:10;;;;;;;21.77;4.68;;;;;;;7.63;100.00;102583.78;5064337;28;20055;-73
2024/02/19 04:35:35;;;;;;;23.58;4.80;;;;;;;7.65;100.00;102592.66;5064292;28;20079;-74
2024/02/19 04:38:01;;;;;;;22.65;4.68;;;;;;;7.67;100.00;102584.81;5065250;28;20040;-69
2024/02/19 04:40:26;;;;;;;22.98;4.65;;;;;;;7.68;100.00;102582.25;5062807;28;20029;-70
2024/02/19 04:42:51;;;;;;;22.33;4.63;;;;;;;7.70;100.00;102589.31;5064865;28;20052;-73
2024/02/19 04:45:17;;;;;;;23.48;4.63;;;;;;;7.73;100.00;102578.91;5062818;28;20104;-70
2024/02/19 04:47:42;;;;;;;22.30;4.30;;;;;;;7.72;100.00;102582.38;5064778;28;20033;-73
2024/02/19 04:50:08;;;;;;;25.08;4.70;;;;;;;7.76;100.00;102585.25;5063006;28;20060;-70
2024/02/19 04:52:34;;;;;;;21.50;4.50;;;;;;;7.81;100.00;102573.16;5062140;28;20045;-81
2024/02/19 04:54:59;;;;;;;21.40;4.20;;;;;;;7.87;100.00;102577.78;5048088;28;20025;-81
2024/02/19 04:57:24;;;;;;;23.73;4.82;;;;;;;7.85;100.00;102584.75;5065715;28;20435;-81
2024/02/19 04:59:50;;;;;;;24.80;4.65;;;;;;;7.90;100.00;102582.28;5062185;28;20454;-72
2024/02/19 05:02:15;;;;;;;23.83;4.57;;;;;;;7.81;100.00;102578.41;5064849;28;20051;-76
2024/02/19 05:04:40;;;;;;;24.65;4.90;;;;;;;7.83;100.00;102581.13;5062198;28;20116;-69
2024/02/19 05:07:06;;;;;;;23.13;4.30;;;;;;;7.84;100.00;102575.91;5062416;28;20056;-70
2024/02/19 05:09:31;;;;;;;23.50;4.68;;;;;;;7.85;100.00;102574.22;5063561;28;20052;-70
2024/02/19 05:11:56;;;;;;;23.27;4.47;;;;;;;7.83;100.00;102584.69;5062581;28;20033;-70
2024/02/19 05:14:22;;;;;;;22.65;4.32;;;;;;;7.86;100.00;102583.88;5065406;28;20030;-70
2024/02/19 05:16:47;;;;;;;22.73;4.45;;;;;;;7.87;100.00;102585.69;5062288;28;20021;-71
2024/02/19 05:19:13;;;;;;;20.95;4.10;;;;;;;7.87;100.00;102587.44;5064355;28;20033;-72
2024/02/19 05:21:40;;;;;;;20.80;4.40;;;;;;;7.91;100.00;102584.09;5062151;28;20578;-73
2024/02/19 05:24:06;;;;;;;24.60;4.80;;;;;;;7.90;100.00;102580.56;5063538;28;20025;-70
2024/02/19 05:26:32;;;;;;;22.45;4.35;;;;;;;7.93;100.00;102577.16;5064174;28;20397;-70
2024/02/19 05:28:57;;;;;;;22.23;4.82;;;;;;;7.93;100.00;102579.78;5061979;28;20502;-70
2024/02/19 05:31:33;;;;;;;22.30;4.38;;;;;;;7.95;100.00;102565.88;5065275;28;20480;-70
2024/02/19 05:33:59;;;;;;;22.67;4.28;;;;;;;7.92;100.00;102567.44;5061480;28;20029;-70
2024/02/19 05:36:25;;;;;;;21.45;4.20;;;;;;;7.91;100.00;102573.56;5065082;28;20375;-70
2024/02/19 05:38:51;;;;;;;22.90;4.72;;;;;;;7.92;100.00;102571.00;5061964;28;20119;-77
2024/02/19 05:41:16;;;;;;;23.13;4.25;;;;;;;7.90;100.00;102572.66;5064231;28;20538;-77
2024/02/19 05:43:42;;;;;;;23.05;4.60;;;;;;;7.90;100.00;102572.66;5061187;28;20027;-80
2024/02/19 05:46:08;;;;;;;21.92;4.20;;;;;;;7.65;100.00;102579.47;5062399;28;20124;-71
2024/02/19 05:48:33;;;;;;;22.85;4.43;;;;;;;7.62;100.00;102581.97;5063825;28;20055;-79
2024/02/19 05:51:03;;;;;;;22.60;4.40;;;;;;;7.61;100.00;102579.28;5064768;28;20387;-81
2024/02/19 05:53:34;;;;;;;24.85;4.70;;;;;;;7.64;100.00;102572.41;5086386;28;20031;-80
2024/02/19 05:56:09;;;;;;;22.00;4.35;;;;;;;7.62;100.00;102584.63;5082784;28;20387;-81
2024/02/19 05:58:37;;;;;;;21.10;4.30;;;;;;;7.59;100.00;102573.97;5084569;28;20028;-81
2024/02/19 06:01:03;;;;;;;21.67;4.53;;;;;;;7.60;100.00;102582.75;5083004;28;20028;-80
2024/02/19 06:03:28;;;;;;;22.67;4.40;;;;;;;7.60;100.00;102588.00;5081462;28;20368;-81
2024/02/19 06:05:54;;;;;;;22.48;4.50;;;;;;;7.57;100.00;102590.50;5067483;28;20031;-81
2024/02/19 06:08:19;;;;;;;21.15;4.25;;;;;;;7.54;100.00;102591.25;5064204;28;20036;-81
2024/02/19 06:10:45;;;;;;;22.58;4.68;;;;;;;7.55;100.00;102590.44;5066422;28;20032;-82
2024/02/19 06:13:11;;;;;;;23.77;4.80;;;;;;;7.58;100.00;102584.41;5083428;28;20493;-81
2024/02/19 06:15:37;;;;;;;25.08;4.80;;;;;;;7.60;100.00;102583.66;5083436;28;20044;-81
2024/02/19 06:18:02;;;;;;;25.38;5.05;;;;;;;7.61;100.00;102580.19;5084249;28;20483;-81
2024/02/19 06:20:28;;;;;;;22.70;4.38;;;;;;;7.63;100.00;102581.16;5082180;28;20119;-80
2024/02/19 06:22:53;;;;;;;24.95;4.70;;;;;;;7.64;100.00;102585.56;5085499;28;20378;-81
2024/02/19 06:25:18;;;;;;;21.92;4.50;;;;;;;7.63;100.00;102588.13;5080806;28;20032;-81
2024/02/19 06:27:44;;;;;;;23.08;4.47;;;;;;;7.64;100.00;102598.72;5082758;28;20024;-81
2024/02/19 06:30:09;;;;;;;22.45;4.57;;;;;;;7.63;100.00;102588.13;5083382;28;20036;-80
2024/02/19 06:32:35;;;;;;;22.70;4.45;;;;;;;7.62;100.00;102587.25;5084073;28;20048;-82
2024/02/19 06:35:00;;;;;;;22.92;4.72;;;;;;;7.62;100.00;102592.50;5082217;28;20028;-79
2024/02/19 06:37:26;;;;;;;23.27;4.65;;;;;;;7.62;100.00;102595.16;5085833;28;20028;-71
2024/02/19 06:39:51;;;;;;;23.48;4.93;;;;;;;7.62;100.00;102596.88;5081049;28;20371;-73
2024/02/19 06:42:18;;;;;;;25.45;5.55;;;;;;;7.62;100.00;102603.03;5065512;28;20064;-73
2024/02/19 06:44:43;;;;;;;23.98;4.90;;;;;;;7.61;100.00;102600.34;5082034;28;20043;-73
2024/02/19 06:47:08;;;;;;;24.48;5.95;;;;;;;7.62;100.00;102597.78;5058873;28;20028;-77
2024/02/19 06:49:34;;;;;;;23.45;5.95;;;;;;;7.61;100.00;102601.22;5087585;28;20081;-78
2024/02/19 06:51:59;;;;;;;24.40;5.65;;;;;;;7.63;100.00;102601.31;5085346;28;20061;-76
2024/02/19 06:54:24;;;;;;;22.75;5.80;;;;;;;7.63;100.00;102598.66;5088940;28;20024;-80
2024/02/19 06:56:50;;;;;;;24.80;6.88;;;;;;;7.61;100.00;102595.97;5085442;28;20082;-80
2024/02/19 06:59:15;;;;;;;25.48;7.15;;;;;;;7.64;100.00;102596.09;5069557;28;20078;-81
2024/02/19 07:01:40;;;;;;;23.23;6.57;;;;;;;7.66;100.00;102598.84;5086365;28;20107;-80
2024/02/19 07:04:06;;;;;;;23.38;6.53;;;;;;;7.67;100.00;102590.09;5086153;28;20039;-78
2024/02/19 07:06:32;;;;;;;24.55;7.30;;;;;;;7.72;100.00;102600.81;5069445;28;20348;-80
2024/02/19 07:08:57;;;;;;;25.02;7.40;;;;;;;7.75;100.00;102599.22;5084789;28;20426;-81
2024/02/19 07:11:23;;;;;;;25.00;7.25;;;;;;;7.77;100.00;102601.94;5088153;28;20028;-70
2024/02/19 07:13:51;;;;;;;24.92;7.40;;;;;;;7.80;100.00;102610.84;5084834;28;20021;-71
2024/02/19 07:16:17;;;;;;;24.90;7.70;;;;;;;7.79;100.00;102614.31;5086918;28;20491;-70
2024/02/19 07:18:42;;;;;;;25.02;7.35;;;;;;;7.82;100.00;102592.47;5085688;28;20173;-70
2024/02/19 07:21:07;;;;;;;25.10;7.53;;;;;;;7.83;100.00;102602.19;5085779;28;20032;-71
2024/02/19 07:23:33;;;;;;;26.70;8.00;;;;;;;7.84;100.00;102604.00;5068690;28;20088;-70
2024/02/19 07:25:58;;;;;;;27.55;7.93;;;;;;;7.85;100.00;102595.28;5084546;28;20060;-71
2024/02/19 07:28:24;;;;;;;24.02;7.65;;;;;;;7.91;100.00;102595.53;5087606;28;20144;-71
2024/02/19 07:30:49;;;;;;;26.30;8.63;;;;;;;7.92;100.00;102597.34;5066666;28;20082;-75
2024/02/19 07:33:14;;;;;;;25.20;8.05;;;;;;;7.93;100.00;102591.22;5086538;28;20534;-76
2024/02/19 07:35:40;;;;;;;26.33;7.97;;;;;;;7.96;100.00;102596.59;5067578;28;20063;-73
2024/02/19 07:38:05;;;;;;;25.13;7.90;;;;;;;7.98;100.00;102596.66;5085387;28;20029;-71
2024/02/19 07:40:30;;;;;;;28.92;8.70;;;;;;;8.00;100.00;102590.66;5086711;28;20032;-71
2024/02/19 07:42:56;;;;;;;23.88;7.88;;;;;;;8.03;100.00;102596.03;5065764;28;20484;-72
2024/02/19 07:45:21;;;;;;;26.52;8.57;;;;;;;8.07;100.00;102591.81;5087172;28;20035;-81
2024/02/19 07:47:46;;;;;;;25.65;8.77;;;;;;;8.10;100.00;102596.31;5084313;28;20029;-80
2024/02/19 07:50:12;;;;;;;25.38;8.25;;;;;;;8.12;100.00;102594.63;5085549;28;20479;-83
2024/02/19 07:52:37;;;;;;;25.10;8.60;;;;;;;8.14;100.00;102587.69;5085695;28;20044;-80
2024/02/19 07:55:03;;;;;;;27.00;8.90;;;;;;;8.18;100.00;102597.53;5084313;28;20098;-81
2024/02/19 07:57:29;;;;;;;27.77;9.38;;;;;;;8.20;100.00;102588.84;5080637;28;20032;-83
2024/02/19 07:59:54;;;;;;;26.30;9.02;;;;;;;8.24;100.00;102591.63;5087098;28;20032;-83
2024/02/19 08:02:19;;;;;;;25.25;9.48;;;;;;;8.28;100.00;102586.53;5083880;28;20060;-83
2024/02/19 08:04:45;;;;;;;27.30;9.63;;;;;;;8.32;100.00;102583.19;5086705;28;20068;-71
2024/02/19 08:07:10;;;;;;;26.73;10.07;;;;;;;8.37;100.00;102571.13;5084876;28;20040;-83
2024/02/19 08:09:35;;;;;;;27.63;10.30;;;;;;;8.41;100.00;102576.50;5085707;28;20036;-81
2024/02/19 08:12:06;;;;;;;25.92;10.02;;;;;;;8.51;100.00;102573.44;5087699;28;20043;-80
2024/02/19 08:14:31;;;;;;;27.27;10.32;;;;;;;8.62;100.00;102579.13;5085859;28;20088;-84
2024/02/19 08:16:57;;;;;;;28.73;11.05;;;;;;;8.67;100.00;102573.22;5088293;28;20055;-83
2024/02/19 08:19:22;;;;;;;27.88;11.32;;;;;;;8.76;100.00;102571.78;5088147;28;20036;-83
2024/02/19 08:21:48;;;;;;;28.25;11.27;;;;;;;8.81;100.00;102580.75;5085154;28;20040;-83
2024/02/19 08:24:14;;;;;;;30.75;12.10;;;;;;;8.93;100.00;102575.97;5086907;28;20039;-80
2024/02/19 08:26:40;;;;;;;29.30;11.70;;;;;;;9.06;100.00;102590.53;5086147;28;20024;-82
2024/02/19 08:29:06;;;;;;;27.08;11.60;;;;;;;9.27;100.00;102600.13;5067282;28;20107;-83
2024/02/19 08:31:31;;;;;;;29.65;12.50;;;;;;;9.39;100.00;102593.56;5086528;28;20024;-83
2024/02/19 08:33:57;;;;;;;28.27;11.90;;;;;;;9.30;100.00;102595.84;5084717;28;20035;-83
2024/02/19 08:36:23;;;;;;;28.58;12.07;;;;;;;9.15;100.00;102590.88;5083689;28;20032;-83
2024/02/19 08:38:55;;;;;;;29.92;13.13;;;;;;;9.05;100.00;102600.19;5086793;28;20378;-83
2024/02/19 08:41:21;;;;;;;29.55;12.93;;;;;;;9.01;100.00;102597.38;5066174;28;20043;-83
2024/02/19 08:43:47;;;;;;;29.08;13.90;;;;;;;8.92;100.00;102592.63;5086010;28;20036;-71
2024/02/19 08:46:13;;;;;;;29.67;13.82;;;;;;;8.90;100.00;102594.31;5065873;28;20040;-72
2024/02/19 08:48:39;;;;;;;30.58;13.95;;;;;;;8.88;100.00;102596.00;5084880;28;20029;-72
2024/02/19 08:51:04;;;;;;;30.35;15.13;;;;;;;8.95;100.00;102602.41;5084618;28;20043;-72
2024/02/19 08:53:29;;;;;;;30.65;16.65;;;;;;;9.04;100.00;102605.41;5065120;28;20032;-75
2024/02/19 08:55:55;;;;;;;32.13;16.58;;;;;;;9.10;100.00;102602.09;5086216;28;20081;-73
2024/02/19 08:58:20;;;;;;;33.15;18.15;;;;;;;9.17;100.00;102614.69;5064550;28;20036;-70
2024/02/19 09:00:46;;;;;;;32.50;17.65;;;;;;;9.12;100.00;102621.53;5085318;28;20056;-71
2024/02/19 09:03:11;;;;;;;34.35;19.38;;;;;;;9.05;100.00;102616.00;5083648;28;20039;-75
2024/02/19 09:05:37;;;;;;;35.85;20.05;;;;;;;9.07;100.00;102621.34;5082363;28;20024;-82
2024/02/19 09:08:03;;;;;;;35.60;22.25;;;;;;;9.03;100.00;102622.97;5081995;28;20028;-71
2024/02/19 09:10:28;;;;;;;37.58;23.95;;;;;;;8.98;100.00;102629.78;5085545;28;20047;-72
2024/02/19 09:12:54;;;;;;;39.45;24.60;;;;;;;8.94;100.00;102632.25;5064074;28;20044;-81
2024/02/19 09:15:19;;;;;;;38.72;25.00;;;;;;;8.88;100.00;102622.38;5085519;28;20025;-70
2024/02/19 09:17:44;;;;;;;35.58;24.95;;;;;;;8.93;100.00;102634.00;5082959;28;20497;-71
2024/02/19 09:20:11;;;;;;;37.70;25.25;;;;;;;8.92;100.00;102637.47;5084094;28;20032;-73
2024/02/19 09:22:37;;;;;;;39.58;27.17;;;;;;;8.89;100.00;102634.72;5084200;28;20032;-76
2024/02/19 09:25:03;;;;;;;41.75;28.00;;;;;;;8.97;100.00;102635.94;5082847;28;20039;-78
2024/02/19 09:27:29;;;;;;;40.50;28.75;;;;;;;8.97;100.00;102621.81;5085160;28;20032;-73
2024/02/19 09:29:56;;;;;;;41.03;27.95;;;;;;;9.02;100.00;102626.44;5082729;28;20029;-75
2024/02/19 09:32:22;;;;;;;41.85;27.90;;;;;;;9.03;100.00;102622.09;5083034;28;20051;-82
2024/02/19 09:34:48;;;;;;;42.35;28.45;;;;;;;9.05;100.00;102615.13;5085813;28;20081;-81
2024/02/19 09:37:13;;;;;;;40.72;28.02;;;;;;;9.04;100.00;102619.50;5084225;28;20036;-83
2024/02/19 09:39:39;;;;;;;42.05;28.85;;;;;;;9.14;100.00;102617.22;5084441;28;20506;-84
2024/02/19 09:42:06;;;;;;;42.63;27.75;;;;;;;9.19;100.00;102619.19;5084733;28;20047;-81
2024/02/19 09:44:32;;;;;;;40.63;27.58;;;;;;;9.23;100.00;102618.47;5083742;28;20032;-79
2024/02/19 09:47:04;;;;;;;40.42;27.75;;;;;;;9.23;100.00;102617.56;5067181;28;20085;-81
2024/02/19 09:49:31;;;;;;;42.10;28.08;;;;;;;9.29;100.00;102615.19;5082569;28;20043;-81
2024/02/19 09:52:00;;;;;;;39.53;26.98;;;;;;;9.30;100.00;102610.78;5085159;28;20067;-80
2024/02/19 09:54:28;;;;;;;42.05;29.17;;;;;;;9.30;100.00;102608.16;5082207;28;20028;-79
2024/02/19 09:56:54;;;;;;;41.28;27.73;;;;;;;9.30;100.00;102597.59;5081901;28;20021;-79
2024/02/19 09:59:21;;;;;;;41.85;28.30;;;;;;;9.22;100.00;102607.88;5085065;28;20024;-73
2024/02/19 10:01:46;;;;;;;40.42;28.33;;;;;;;9.16;100.00;102607.59;5082145;28;20054;-77
2024/02/19 10:04:14;;;;;;;39.88;29.05;;;;;;;9.14;100.00;102599.63;5083350;28;20017;-79
2024/02/19 10:06:41;;;;;;;38.47;27.60;;;;;;;9.16;100.00;102603.25;5065406;28;20107;-79
2024/02/19 10:09:07;;;;;;;39.42;27.73;;;;;;;9.22;100.00;102606.13;5085741;28;20048;-78
2024/02/19 10:11:36;;;;;;;38.83;26.42;;;;;;;9.24;100.00;102608.81;5082674;28;20032;-76
2024/02/19 10:14:05;;;;;;;38.20;26.05;;;;;;;9.30;100.00;102605.50;5066286;28;20471;-79
2024/02/19 10:16:31;;;;;;;35.85;25.30;;;;;;;9.38;100.00;102609.34;5082655;28;20062;-73
2024/02/19 10:19:06;;;;;;;37.78;25.15;;;;;;;9.47;100.00;102614.06;5085049;28;20051;-79
2024/02/19 10:21:31;;;;;;;33.80;22.65;;;;;;;9.41;100.00;102605.06;5081883;28;20033;-80
2024/02/19 10:23:56;;;;;;;34.65;21.85;;;;;;;9.46;100.00;102607.88;5066777;28;20477;-79
2024/02/19 10:26:22;;;;;;;34.55;21.67;;;;;;;9.41;100.00;102607.69;5080705;28;20088;-78
2024/02/19 10:28:52;;;;;;;35.38;21.92;;;;;;;9.33;100.00;102595.06;5063550;28;20028;-79
2024/02/19 10:31:19;;;;;;;34.15;21.60;;;;;;;9.35;100.00;102598.63;5083980;28;20063;-80
2024/02/19 10:33:44;;;;;;;32.58;21.80;;;;;;;9.42;100.00;102603.31;5082275;28;20032;-79
2024/02/19 10:36:11;;;;;;;31.02;20.48;;;;;;;9.46;100.00;102592.03;5082685;28;20047;-70
2024/02/19 10:38:37;;;;;;;32.08;19.38;;;;;;;9.59;100.00;102583.69;5083080;28;20394;-79
2024/02/19 10:41:03;;;;;;;32.13;18.02;;;;;;;9.72;100.00;102587.69;5081497;28;20028;-78
2024/02/19 10:43:28;;;;;;;29.75;18.02;;;;;;;9.74;100.00;102588.66;5083919;28;20044;-79
2024/02/19 10:45:54;;;;;;;30.60;17.88;;;;;;;9.72;100.00;102585.03;5081048;28;20021;-73
2024/02/19 10:48:20;;;;;;;29.73;17.73;;;;;;;9.63;100.00;102587.38;5083974;28;20118;-69
2024/02/19 10:50:49;;;;;;;30.08;17.55;;;;;;;9.62;100.00;102582.91;5081392;28;20448;-72
2024/02/19 10:53:14;;;;;;;32.60;18.10;;;;;;;9.33;100.00;102580.09;5082946;28;20052;-69
2024/02/19 10:55:42;;;;;;;30.35;17.08;;;;;;;9.22;100.00;102577.09;5082507;28;20032;-69
2024/02/19 10:58:14;;;;;;;29.02;16.60;;;;;;;9.25;100.00;102578.94;5082406;28;20063;-71
2024/02/19 11:00:42;;;;;;;31.02;17.30;;;;;;;9.31;100.00;102576.53;5083129;28;20059;-75
2024/02/19 11:03:09;;;;;;;30.10;16.25;;;;;;;9.40;100.00;102571.56;5064684;28;20032;-70
2024/02/19 11:05:38;;;;;;;28.90;16.05;;;;;;;9.47;100.00;102574.47;5083626;28;20039;-74
2024/02/19 11:08:16;;;;;;;30.67;15.68;;;;;;;9.52;100.00;102564.94;5082236;28;20024;-78